Time;durP1;ratioP1;P1;durP2;ratioP2;P2;SDS_P1;SDS_P2;PMS_P1;PMS_P2;Temp;Humidity;BMP_temperature;BMP_pressure;BME280_temperature;BME280_humidity;BME280_pressure;Samples;Min_cycle;Max_cycle;Signal;HPM_P1;HPM_P2
2021/06/05 00:01:34;;;;;;;5.00;3.15;;;;;;;-140.79;100.00;63287.88;4969287;28;20035;-71
2021/06/05 00:04:00;;;;;;;4.80;3.63;;;;;;;-140.79;100.00;63287.88;4968292;28;20141;-71
2021/06/05 00:06:25;;;;;;;4.53;3.08;;;;;;;-140.79;100.00;63287.88;4968177;28;20033;-71
2021/06/05 00:08:51;;;;;;;5.68;3.08;;;;;;;-140.79;100.00;63287.88;4965975;28;20041;-71
2021/06/05 00:11:17;;;;;;;3.78;2.92;;;;;;;-140.79;100.00;63287.88;4968359;28;20027;-71
2021/06/05 00:13:45;;;;;;;4.63;3.00;;;;;;;-140.79;100.00;63287.88;4967801;28;20065;-71
2021/06/05 00:16:16;;;;;;;4.90;3.10;;;;;;;-140.79;100.00;63287.88;4968068;28;20058;-71
2021/06/05 00:18:43;;;;;;;6.97;3.20;;;;;;;-140.79;100.00;63287.88;4968500;28;20058;-71
2021/06/05 00:21:08;;;;;;;5.03;2.88;;;;;;;-140.79;100.00;63287.88;4934986;28;20031;-71
2021/06/05 00:23:34;;;;;;;5.07;3.20;;;;;;;-140.79;100.00;63287.88;4967407;28;20410;-71
2021/06/05 00:25:59;;;;;;;3.67;2.70;;;;;;;-140.79;100.00;63287.88;4951795;28;20479;-70
2021/06/05 00:28:25;;;;;;;3.38;2.70;;;;;;;-140.79;100.00;63287.88;4951893;28;20019;-71
2021/06/05 00:30:51;;;;;;;4.45;3.15;;;;;;;-140.79;100.00;63287.88;4951365;28;20027;-70
2021/06/05 00:33:16;;;;;;;4.78;3.00;;;;;;;-140.79;100.00;63287.88;4968383;28;20023;-70
2021/06/05 00:35:41;;;;;;;5.38;2.80;;;;;;;-140.79;100.00;63287.88;4968162;28;20862;-71
2021/06/05 00:38:07;;;;;;;5.43;3.20;;;;;;;-140.79;100.00;63287.88;4968387;28;20038;-71
2021/06/05 00:40:36;;;;;;;4.20;2.78;;;;;;;-140.79;100.00;63287.88;4968172;28;20062;-71
2021/06/05 00:43:02;;;;;;;5.60;3.10;;;;;;;-140.79;100.00;63287.88;4967819;28;20030;-71
2021/06/05 00:45:29;;;;;;;6.63;3.45;;;;;;;-140.79;100.00;63287.88;4968387;28;20404;-71
2021/06/05 00:47:56;;;;;;;6.50;3.47;;;;;;;-140.79;100.00;63287.88;4967655;28;20402;-71
2021/06/05 00:50:22;;;;;;;4.10;2.90;;;;;;;-140.79;100.00;63287.88;4968159;28;20030;-71
2021/06/05 00:52:47;;;;;;;4.88;3.22;;;;;;;-140.79;100.00;63287.88;4968498;28;20042;-71
2021/06/05 00:55:14;;;;;;;5.65;3.10;;;;;;;-140.79;100.00;63287.88;4950922;28;20413;-71
2021/06/05 00:57:40;;;;;;;4.78;2.80;;;;;;;-140.79;100.00;63287.88;4968021;28;20034;-71
2021/06/05 01:00:26;;;;;;;4.55;3.15;;;;;;;-140.79;100.00;63287.88;4966874;28;21011;-71
2021/06/05 01:02:52;;;;;;;4.28;3.60;;;;;;;-140.79;100.00;63287.88;4968344;28;20053;-71
2021/06/05 01:05:18;;;;;;;5.07;3.00;;;;;;;-140.79;100.00;63287.88;4966637;28;20586;-71
2021/06/05 01:07:43;;;;;;;5.15;2.90;;;;;;;-140.79;100.00;63287.88;4950403;28;20034;-71
2021/06/05 01:10:28;;;;;;;4.85;2.83;;;;;;;-140.79;100.00;63287.88;4967940;28;20030;-71
2021/06/05 01:13:12;;;;;;;4.88;2.50;;;;;;;-140.79;100.00;63287.88;4967056;28;20035;-72
2021/06/05 01:16:07;;;;;;;3.53;2.92;;;;;;;-140.79;100.00;63287.88;4950438;28;20428;-71
2021/06/05 01:18:54;;;;;;;3.90;2.85;;;;;;;-140.79;100.00;63287.88;4940161;28;20054;-71
2021/06/05 01:21:55;;;;;;;3.55;2.90;;;;;;;-140.79;100.00;63287.88;4968182;28;20037;-71
2021/06/05 01:24:29;;;;;;;4.13;2.80;;;;;;;-140.79;100.00;63287.88;4950576;28;20038;-71
2021/06/05 01:27:09;;;;;;;4.95;3.42;;;;;;;-140.79;100.00;63287.88;4967911;28;20035;-71
2021/06/05 01:29:36;;;;;;;4.38;3.05;;;;;;;-140.79;100.00;63287.88;4965060;28;20490;-71
2021/06/05 01:32:05;;;;;;;3.97;2.75;;;;;;;-140.79;100.00;63287.88;4948997;28;20034;-71
2021/06/05 01:34:32;;;;;;;5.93;3.35;;;;;;;-140.79;100.00;63287.88;4967313;28;20146;-71
2021/06/05 01:36:58;;;;;;;4.82;2.92;;;;;;;-140.79;100.00;63287.88;4966158;28;20034;-71
2021/06/05 01:39:29;;;;;;;5.72;3.47;;;;;;;-140.79;100.00;63287.88;4966537;28;20037;-70
2021/06/05 01:41:56;;;;;;;5.28;2.92;;;;;;;-140.79;100.00;63287.88;4950408;28;20046;-71
2021/06/05 01:44:21;;;;;;;4.07;2.80;;;;;;;-140.79;100.00;63287.88;4950284;28;20050;-71
2021/06/05 01:46:47;;;;;;;3.70;2.75;;;;;;;-140.79;100.00;63287.88;4950225;28;20031;-71
2021/06/05 01:49:13;;;;;;;5.15;3.10;;;;;;;-140.79;100.00;63287.88;4967540;28;20585;-71
2021/06/05 01:51:40;;;;;;;6.53;3.33;;;;;;;-140.79;100.00;63287.88;4967702;28;20113;-71
2021/06/05 01:54:08;;;;;;;5.20;3.40;;;;;;;-140.79;100.00;63287.88;4934380;28;20107;-71
2021/06/05 01:56:45;;;;;;;5.07;3.30;;;;;;;-140.79;100.00;63287.88;4934267;28;20030;-71
2021/06/05 01:59:12;;;;;;;4.47;2.88;;;;;;;-140.79;100.00;63287.88;4954047;28;20026;-71
2021/06/05 02:01:37;;;;;;;8.07;3.72;;;;;;;-140.79;100.00;63287.88;4970889;28;20039;-71
2021/06/05 02:04:03;;;;;;;6.63;3.30;;;;;;;-140.79;100.00;63287.88;4969795;28;20057;-71
2021/06/05 02:06:28;;;;;;;4.43;3.20;;;;;;;-140.79;100.00;63287.88;4971182;28;20033;-71
2021/06/05 02:08:54;;;;;;;4.55;3.50;;;;;;;-140.79;100.00;63287.88;4954171;28;20054;-71
2021/06/05 02:11:20;;;;;;;4.57;3.10;;;;;;;-140.79;100.00;63287.88;4954091;28;20495;-70
2021/06/05 02:13:49;;;;;;;4.72;3.13;;;;;;;-140.79;100.00;63287.88;4953539;28;20109;-71
2021/06/05 02:16:24;;;;;;;5.85;3.38;;;;;;;-140.79;100.00;63287.88;4954072;28;20027;-71
2021/06/05 02:18:54;;;;;;;5.05;3.20;;;;;;;-140.79;100.00;63287.88;4970078;28;20026;-71
2021/06/05 02:21:20;;;;;;;4.80;3.25;;;;;;;-140.79;100.00;63287.88;4937759;28;20026;-71
2021/06/05 02:23:48;;;;;;;5.97;3.53;;;;;;;-140.79;100.00;63287.88;4953791;28;20030;-71
2021/06/05 02:26:15;;;;;;;5.50;3.58;;;;;;;-140.79;100.00;63287.88;4970952;28;20034;-71
2021/06/05 02:28:40;;;;;;;5.03;3.30;;;;;;;-140.79;100.00;63287.88;4969226;28;20035;-71
2021/06/05 02:31:07;;;;;;;5.00;3.15;;;;;;;-140.79;100.00;63287.88;4953168;28;20019;-71
2021/06/05 02:33:33;;;;;;;4.88;3.30;;;;;;;-140.79;100.00;63287.88;4953633;28;20400;-71
2021/06/05 02:35:59;;;;;;;4.63;3.17;;;;;;;-140.79;100.00;63287.88;4953462;28;20026;-71
2021/06/05 02:38:25;;;;;;;5.65;3.40;;;;;;;-140.79;100.00;63287.88;4970272;28;20422;-71
2021/06/05 02:40:50;;;;;;;4.18;3.30;;;;;;;-140.79;100.00;63287.88;4969003;28;20027;-71
2021/06/05 02:43:24;;;;;;;4.55;3.10;;;;;;;-140.79;100.00;63287.88;4969984;28;20031;-71
2021/06/05 02:45:56;;;;;;;4.25;2.97;;;;;;;-140.79;100.00;63287.88;4954088;28;20426;-71
2021/06/05 02:48:21;;;;;;;6.22;3.33;;;;;;;-140.79;100.00;63287.88;4985097;28;20558;-70
2021/06/05 02:50:52;;;;;;;4.88;3.05;;;;;;;-140.79;100.00;63287.88;4952904;28;20117;-70
2021/06/05 02:53:18;;;;;;;5.15;2.95;;;;;;;-140.79;100.00;63287.88;4970166;28;20027;-70
2021/06/05 02:55:44;;;;;;;6.38;3.50;;;;;;;-140.79;100.00;63287.88;4970718;28;20060;-70
2021/06/05 02:58:09;;;;;;;4.88;2.90;;;;;;;-140.79;100.00;63287.88;4953443;28;20048;-70
2021/06/05 03:00:43;;;;;;;4.53;3.13;;;;;;;-140.79;100.00;63287.88;4970400;28;20046;-70
2021/06/05 03:03:09;;;;;;;4.45;3.28;;;;;;;-140.79;100.00;63287.88;4969776;28;20212;-71
2021/06/05 03:05:35;;;;;;;4.28;3.13;;;;;;;-140.79;100.00;63287.88;4970421;28;20038;-71
2021/06/05 03:08:00;;;;;;;6.25;2.90;;;;;;;-140.79;100.00;63287.88;4951776;28;20042;-70
2021/06/05 03:10:27;;;;;;;4.03;3.00;;;;;;;-140.79;100.00;63287.88;4970538;28;20034;-71
2021/06/05 03:12:52;;;;;;;5.63;3.35;;;;;;;-140.79;100.00;63287.88;4954027;28;20126;-71
2021/06/05 03:15:18;;;;;;;4.53;2.80;;;;;;;-140.79;100.00;63287.88;4969669;28;20097;-71
2021/06/05 03:17:43;;;;;;;5.00;3.30;;;;;;;-140.79;100.00;63287.88;4970138;28;20030;-70
2021/06/05 03:20:11;;;;;;;4.25;3.30;;;;;;;-140.79;100.00;63287.88;4952873;28;20138;-70
2021/06/05 03:22:37;;;;;;;4.68;2.95;;;;;;;-140.79;100.00;63287.88;4969491;28;20034;-71
2021/06/05 03:25:04;;;;;;;4.35;3.05;;;;;;;-140.79;100.00;63287.88;4969619;28;20421;-70
2021/06/05 03:27:30;;;;;;;4.15;2.95;;;;;;;-140.79;100.00;63287.88;4968351;28;20532;-70
2021/06/05 03:29:55;;;;;;;4.35;2.92;;;;;;;-140.79;100.00;63287.88;4969419;28;20027;-70
2021/06/05 03:32:21;;;;;;;4.63;3.15;;;;;;;-140.79;100.00;63287.88;4968438;28;20423;-71
2021/06/05 03:34:46;;;;;;;5.55;3.33;;;;;;;-140.79;100.00;63287.88;4969724;28;20031;-70
2021/06/05 03:37:12;;;;;;;4.35;3.00;;;;;;;-140.79;100.00;63287.88;4969343;28;20558;-70
2021/06/05 03:39:37;;;;;;;6.13;3.22;;;;;;;-140.79;100.00;63287.88;4969740;28;20034;-70
2021/06/05 03:42:03;;;;;;;8.57;3.40;;;;;;;-140.79;100.00;63287.88;4968235;28;20085;-71
2021/06/05 03:44:29;;;;;;;4.72;3.25;;;;;;;-140.79;100.00;63287.88;4969886;28;20025;-71
2021/06/05 03:46:54;;;;;;;5.88;3.75;;;;;;;-140.79;100.00;63287.88;4970699;28;20046;-71
2021/06/05 03:49:19;;;;;;;5.85;3.30;;;;;;;-140.79;100.00;63287.88;4975213;28;20038;-70
2021/06/05 03:51:45;;;;;;;4.70;3.30;;;;;;;-140.79;100.00;63287.88;4976055;28;20046;-71
2021/06/05 03:54:10;;;;;;;5.47;3.47;;;;;;;-140.79;100.00;63287.88;4975704;28;20022;-70
2021/06/05 03:56:36;;;;;;;5.20;3.75;;;;;;;-140.79;100.00;63287.88;4974500;28;20046;-70
2021/06/05 03:59:01;;;;;;;4.70;3.55;;;;;;;-140.79;100.00;63287.88;4974363;28;20026;-68
2021/06/05 04:01:27;;;;;;;4.50;3.97;;;;;;;-140.79;100.00;63287.88;4973812;28;20103;-66
2021/06/05 04:03:53;;;;;;;5.40;3.92;;;;;;;-140.79;100.00;63287.88;4953347;28;20070;-67
2021/06/05 04:06:21;;;;;;;5.28;4.22;;;;;;;-140.79;100.00;63287.88;4966860;28;20030;-67
2021/06/05 04:08:48;;;;;;;5.55;4.10;;;;;;;-140.79;100.00;63287.88;4964724;28;20034;-69
2021/06/05 04:11:13;;;;;;;7.25;3.95;;;;;;;-140.79;100.00;63287.88;4949282;28;20019;-70
2021/06/05 04:13:39;;;;;;;5.57;4.05;;;;;;;-140.79;100.00;63287.88;4932354;28;20096;-70
2021/06/05 04:16:05;;;;;;;5.63;4.55;;;;;;;-140.79;100.00;63287.88;4965754;28;20117;-69
2021/06/05 04:18:36;;;;;;;6.03;4.28;;;;;;;-140.79;100.00;63287.88;4964645;28;20038;-70
2021/06/05 04:21:02;;;;;;;6.07;4.53;;;;;;;-140.79;100.00;63287.88;4947644;28;20023;-70
2021/06/05 04:23:27;;;;;;;6.03;4.07;;;;;;;-140.79;100.00;63287.88;4947805;28;20046;-71
2021/06/05 04:25:53;;;;;;;5.03;3.97;;;;;;;-140.79;100.00;63287.88;4947550;28;20031;-70
2021/06/05 04:28:20;;;;;;;6.97;4.00;;;;;;;-140.79;100.00;63287.88;4961458;28;20050;-70
2021/06/05 04:30:45;;;;;;;8.40;4.25;;;;;;;-140.79;100.00;63287.88;4962510;28;20023;-70
2021/06/05 04:33:12;;;;;;;5.47;4.22;;;;;;;-140.79;100.00;63287.88;4946449;28;20038;-71
2021/06/05 04:35:38;;;;;;;6.38;4.28;;;;;;;-140.79;100.00;63287.88;4964477;28;20117;-71
2021/06/05 04:38:03;;;;;;;5.45;3.90;;;;;;;-140.79;100.00;63287.88;4963017;28;20049;-71
2021/06/05 04:40:29;;;;;;;6.28;4.43;;;;;;;-140.79;100.00;63287.88;4964161;28;20023;-70
2021/06/05 04:42:54;;;;;;;5.78;4.30;;;;;;;-140.79;100.00;63287.88;4963342;28;20086;-70
2021/06/05 04:45:20;;;;;;;7.22;4.28;;;;;;;-140.79;100.00;63287.88;4961863;28;20019;-70
2021/06/05 04:47:46;;;;;;;6.55;4.72;;;;;;;-140.79;100.00;63287.88;4963201;28;20023;-69
2021/06/05 04:50:14;;;;;;;6.25;3.90;;;;;;;-140.79;100.00;63287.88;4966675;28;20014;-68
2021/06/05 04:52:39;;;;;;;6.05;4.28;;;;;;;-140.79;100.00;63287.88;4965629;28;20505;-69
2021/06/05 04:55:06;;;;;;;6.78;4.35;;;;;;;-140.79;100.00;63287.88;4948739;28;20045;-69
2021/06/05 04:57:31;;;;;;;5.05;4.00;;;;;;;-140.79;100.00;63287.88;4949044;28;20030;-70
2021/06/05 04:59:57;;;;;;;7.18;4.07;;;;;;;-140.79;100.00;63287.88;4963579;28;20037;-70
2021/06/05 05:02:23;;;;;;;5.45;3.85;;;;;;;-140.79;100.00;63287.88;4945576;28;20030;-71
2021/06/05 05:04:48;;;;;;;8.63;4.43;;;;;;;-140.79;100.00;63287.88;4966728;28;20513;-71
2021/06/05 05:07:14;;;;;;;6.70;3.45;;;;;;;-140.79;100.00;63287.88;4963855;28;20402;-70
2021/06/05 05:09:39;;;;;;;5.50;3.85;;;;;;;-140.79;100.00;63287.88;4961460;28;20113;-70
2021/06/05 05:12:05;;;;;;;5.75;3.70;;;;;;;-140.79;100.00;63287.88;4968025;28;20036;-70
2021/06/05 05:14:32;;;;;;;7.07;3.90;;;;;;;-140.79;100.00;63287.88;4967121;28;20038;-70
2021/06/05 05:16:57;;;;;;;6.28;3.85;;;;;;;-140.79;100.00;63287.88;4964832;28;20030;-72
2021/06/05 05:19:22;;;;;;;5.68;3.72;;;;;;;-140.79;100.00;63287.88;4967419;28;20033;-73
2021/06/05 05:21:48;;;;;;;6.80;4.38;;;;;;;-140.79;100.00;63287.88;4967450;28;20035;-73
2021/06/05 05:24:13;;;;;;;9.48;4.45;;;;;;;-140.79;100.00;63287.88;4966823;28;20426;-73
2021/06/05 05:26:39;;;;;;;6.28;3.47;;;;;;;-140.79;100.00;63287.88;4967195;28;20498;-70
2021/06/05 05:29:04;;;;;;;4.65;3.08;;;;;;;-140.79;100.00;63287.88;4964948;28;20033;-71
2021/06/05 05:31:30;;;;;;;5.38;3.08;;;;;;;-140.79;100.00;63287.88;4966694;28;20081;-71
2021/06/05 05:33:56;;;;;;;7.65;3.40;;;;;;;-140.79;100.00;63287.88;4968211;28;20454;-71
2021/06/05 05:36:30;;;;;;;8.02;3.35;;;;;;;-140.79;100.00;63287.88;4967090;28;20413;-70
2021/06/05 05:38:56;;;;;;;6.43;3.28;;;;;;;-140.79;100.00;63287.88;4966072;28;20042;-71
2021/06/05 05:41:22;;;;;;;4.35;3.13;;;;;;;-140.79;100.00;63287.88;4966200;28;20494;-73
2021/06/05 05:43:47;;;;;;;5.70;3.20;;;;;;;-140.79;100.00;63287.88;4965678;28;20490;-72
2021/06/05 05:46:13;;;;;;;4.53;3.20;;;;;;;-140.79;100.00;63287.88;4948924;28;20031;-72
2021/06/05 05:48:38;;;;;;;4.20;3.58;;;;;;;-140.79;100.00;63287.88;4931849;28;20035;-72
2021/06/05 05:51:05;;;;;;;5.18;3.20;;;;;;;-140.79;100.00;63287.88;4932426;28;20221;-70
2021/06/05 05:53:30;;;;;;;5.45;3.38;;;;;;;-140.79;100.00;63287.88;4963654;28;20101;-69
2021/06/05 05:55:57;;;;;;;4.35;3.03;;;;;;;-140.79;100.00;63287.88;4949955;28;20521;-71
2021/06/05 05:58:23;;;;;;;6.57;3.42;;;;;;;-140.79;100.00;63287.88;4949343;28;20514;-71
2021/06/05 06:00:49;;;;;;;6.28;3.63;;;;;;;-140.79;100.00;63287.88;4967231;28;20034;-68
2021/06/05 06:03:15;;;;;;;4.95;3.33;;;;;;;-140.79;100.00;63287.88;4948341;28;20613;-70
2021/06/05 06:05:40;;;;;;;4.07;3.17;;;;;;;-140.79;100.00;63287.88;4967052;28;20101;-69
2021/06/05 06:08:06;;;;;;;5.82;3.10;;;;;;;-140.79;100.00;63287.88;4965579;28;20462;-68
2021/06/05 06:10:32;;;;;;;4.90;3.45;;;;;;;-140.79;100.00;63287.88;4966549;28;20031;-72
2021/06/05 06:12:57;;;;;;;5.40;3.03;;;;;;;-140.79;100.00;63287.88;4948530;28;20031;-70
2021/06/05 06:15:24;;;;;;;5.57;3.22;;;;;;;-140.79;100.00;63287.88;4967280;28;20506;-70
2021/06/05 06:17:50;;;;;;;5.93;3.28;;;;;;;-140.79;100.00;63287.88;4966078;28;20037;-68
2021/06/05 06:20:19;;;;;;;4.50;3.00;;;;;;;-140.79;100.00;63287.88;4948093;28;20477;-68
2021/06/05 06:22:44;;;;;;;5.10;3.33;;;;;;;-140.79;100.00;63287.88;4951391;28;20138;-70
2021/06/05 06:25:10;;;;;;;4.00;3.08;;;;;;;-140.79;100.00;63287.88;4963704;28;20026;-69
2021/06/05 06:27:36;;;;;;;3.75;2.63;;;;;;;-140.79;100.00;63287.88;4965227;28;20057;-70
2021/06/05 06:30:02;;;;;;;3.80;2.83;;;;;;;-140.79;100.00;63287.88;4948949;28;20018;-70
2021/06/05 06:32:27;;;;;;;3.40;2.53;;;;;;;-140.79;100.00;63287.88;4947082;28;20133;-71
2021/06/05 06:34:53;;;;;;;5.35;3.00;;;;;;;-140.79;100.00;63287.88;4966188;28;20518;-73
2021/06/05 06:37:18;;;;;;;3.78;2.78;;;;;;;-140.79;100.00;63287.88;4931901;28;20033;-73
2021/06/05 06:39:44;;;;;;;6.03;2.97;;;;;;;-140.79;100.00;63287.88;4947844;28;20062;-73
2021/06/05 06:42:09;;;;;;;5.38;3.10;;;;;;;-140.79;100.00;63287.88;4947269;28;20030;-71
2021/06/05 06:44:35;;;;;;;5.65;3.05;;;;;;;-140.79;100.00;63287.88;4967875;28;20026;-73
2021/06/05 06:47:01;;;;;;;4.15;2.80;;;;;;;-140.79;100.00;63287.88;4967643;28;20169;-73
2021/06/05 06:49:26;;;;;;;5.40;2.85;;;;;;;-140.79;100.00;63287.88;4969094;28;20089;-70
2021/06/05 06:51:52;;;;;;;5.70;3.00;;;;;;;-140.79;100.00;63287.88;4970143;28;20030;-69
2021/06/05 06:54:17;;;;;;;5.05;2.90;;;;;;;-140.79;100.00;63287.88;4965417;28;20027;-69
2021/06/05 06:56:43;;;;;;;5.50;3.22;;;;;;;-140.79;100.00;63287.88;4965868;28;20027;-70
2021/06/05 06:59:09;;;;;;;5.93;3.08;;;;;;;-140.79;100.00;63287.88;4952349;28;20046;-72
2021/06/05 07:01:34;;;;;;;6.95;4.70;;;;;;;-140.79;100.00;63287.88;4969609;28;20490;-69
2021/06/05 07:03:59;;;;;;;6.47;4.15;;;;;;;-140.79;100.00;63287.88;4969835;28;20426;-72
2021/06/05 07:06:25;;;;;;;8.30;3.85;;;;;;;-140.79;100.00;63287.88;4968133;28;20030;-71
2021/06/05 07:08:52;;;;;;;5.53;3.30;;;;;;;-140.79;100.00;63287.88;4951073;28;20019;-70
2021/06/05 07:11:24;;;;;;;5.15;3.40;;;;;;;-140.79;100.00;63287.88;4965365;28;20605;-71
2021/06/05 07:13:50;;;;;;;6.95;3.92;;;;;;;-140.79;100.00;63287.88;4950645;28;20018;-70
2021/06/05 07:16:16;;;;;;;6.32;3.22;;;;;;;-140.79;100.00;63287.88;4967730;28;20621;-73
2021/06/05 07:18:42;;;;;;;4.70;3.22;;;;;;;-140.79;100.00;63287.88;4967134;28;20030;-70
2021/06/05 07:21:09;;;;;;;6.55;3.70;;;;;;;-140.79;100.00;63287.88;4967668;28;20105;-74
2021/06/05 07:23:35;;;;;;;7.25;3.92;;;;;;;-140.79;100.00;63287.88;4968172;28;20058;-73
2021/06/05 07:26:01;;;;;;;6.80;3.72;;;;;;;-140.79;100.00;63287.88;4967477;28;20565;-73
2021/06/05 07:28:31;;;;;;;6.03;3.30;;;;;;;-140.79;100.00;63287.88;4967671;28;20090;-73
2021/06/05 07:30:57;;;;;;;4.93;3.22;;;;;;;-140.79;100.00;63287.88;4967538;28;20853;-72
2021/06/05 07:33:22;;;;;;;5.47;3.50;;;;;;;-140.79;100.00;63287.88;4966339;28;20042;-69
2021/06/05 07:35:48;;;;;;;5.90;3.40;;;;;;;-140.79;100.00;63287.88;4962198;28;20041;-71
2021/06/05 07:38:14;;;;;;;6.45;3.30;;;;;;;-140.79;100.00;63287.88;4965723;28;20019;-72
2021/06/05 07:40:39;;;;;;;5.22;3.28;;;;;;;-140.79;100.00;63287.88;4966078;28;20031;-73
2021/06/05 07:43:05;;;;;;;4.18;3.03;;;;;;;-140.79;100.00;63287.88;4964685;28;20424;-74
2021/06/05 07:45:31;;;;;;;6.80;3.60;;;;;;;-140.79;100.00;63287.88;4965706;28;20034;-74
2021/06/05 07:47:56;;;;;;;3.35;3.05;;;;;;;-140.79;100.00;63287.88;4964511;28;20065;-74
2021/06/05 07:50:22;;;;;;;4.82;3.13;;;;;;;-140.79;100.00;63287.88;4966008;28;20114;-73
2021/06/05 07:52:47;;;;;;;4.75;2.90;;;;;;;-140.79;100.00;63287.88;4949886;28;20576;-74
2021/06/05 07:55:13;;;;;;;4.22;3.30;;;;;;;-140.79;100.00;63287.88;4964576;28;20422;-72
2021/06/05 07:57:38;;;;;;;5.20;3.17;;;;;;;-140.79;100.00;63287.88;4965935;28;20074;-70
2021/06/05 08:00:28;;;;;;;3.63;3.08;;;;;;;-140.79;100.00;63287.88;4964202;28;20030;-72
2021/06/05 08:02:55;;;;;;;6.15;3.03;;;;;;;-140.79;100.00;63287.88;4946739;28;20694;-73
2021/06/05 08:05:20;;;;;;;4.82;3.15;;;;;;;-140.79;100.00;63287.88;4965195;28;20074;-72
2021/06/05 08:07:46;;;;;;;3.50;2.58;;;;;;;-140.79;100.00;63287.88;4966952;28;20446;-73
2021/06/05 08:10:12;;;;;;;5.13;2.97;;;;;;;-140.79;100.00;63287.88;4950558;28;20027;-70
2021/06/05 08:12:38;;;;;;;5.38;2.80;;;;;;;-140.79;100.00;63287.88;4966613;28;20058;-70
2021/06/05 08:15:05;;;;;;;4.07;2.80;;;;;;;-140.79;100.00;63287.88;4950280;28;20513;-74
2021/06/05 08:17:31;;;;;;;4.35;2.92;;;;;;;-140.79;100.00;63287.88;4968517;28;20030;-75
2021/06/05 08:19:57;;;;;;;4.68;3.03;;;;;;;-140.79;100.00;63287.88;4969027;28;20473;-73
2021/06/05 08:22:25;;;;;;;4.22;3.13;;;;;;;-140.79;100.00;63287.88;4967051;28;20030;-74
2021/06/05 08:24:51;;;;;;;5.90;3.25;;;;;;;-140.79;100.00;63287.88;4968012;28;20043;-74
2021/06/05 08:27:17;;;;;;;4.72;2.75;;;;;;;-140.79;100.00;63287.88;4968122;28;20033;-72
2021/06/05 08:29:42;;;;;;;4.53;3.05;;;;;;;-140.79;100.00;63287.88;4968680;28;20498;-74
2021/06/05 08:32:08;;;;;;;4.18;2.78;;;;;;;-140.79;100.00;63287.88;4948648;28;20208;-71
2021/06/05 08:34:33;;;;;;;4.70;3.00;;;;;;;-140.79;100.00;63287.88;4957621;28;20065;-72
2021/06/05 08:36:59;;;;;;;4.25;2.83;;;;;;;-140.79;100.00;63287.88;4968331;28;20030;-74
2021/06/05 08:39:24;;;;;;;4.20;2.80;;;;;;;-140.79;100.00;63287.88;4968083;28;20027;-75
2021/06/05 08:41:51;;;;;;;5.05;2.72;;;;;;;-140.79;100.00;63287.88;4970244;28;20033;-74
2021/06/05 08:44:34;;;;;;;5.13;3.13;;;;;;;-140.79;100.00;63287.88;4967707;28;20100;-72
2021/06/05 08:47:21;;;;;;;4.03;2.90;;;;;;;-140.79;100.00;63287.88;4951519;28;20054;-72
2021/06/05 08:49:46;;;;;;;4.50;2.97;;;;;;;-140.79;100.00;63287.88;4968268;28;20533;-73
2021/06/05 08:52:32;;;;;;;4.55;2.70;;;;;;;-140.79;100.00;63287.88;4966796;28;20114;-74
2021/06/05 08:55:22;;;;;;;3.90;2.53;;;;;;;-140.79;100.00;63287.88;4951333;28;20121;-74
2021/06/05 08:57:54;;;;;;;5.55;2.97;;;;;;;-140.79;100.00;63287.88;4968382;28;20524;-76
2021/06/05 09:00:41;;;;;;;4.68;2.70;;;;;;;-140.79;100.00;63287.88;4967206;28;20031;-74
2021/06/05 09:03:12;;;;;;;3.63;2.75;;;;;;;-140.79;100.00;63287.88;4965285;28;20506;-74
2021/06/05 09:05:41;;;;;;;3.28;2.80;;;;;;;-140.79;100.00;63287.88;4964802;28;20041;-73
2021/06/05 09:08:06;;;;;;;3.85;2.60;;;;;;;-140.79;100.00;63287.88;4933346;28;20039;-72
2021/06/05 09:10:32;;;;;;;6.00;3.03;;;;;;;-140.79;100.00;63287.88;4967421;28;20025;-71
2021/06/05 09:12:58;;;;;;;3.25;2.28;;;;;;;-140.79;100.00;63287.88;4950741;28;20458;-71
2021/06/05 09:15:31;;;;;;;3.40;2.70;;;;;;;-140.79;100.00;63287.88;4951189;28;20041;-72
2021/06/05 09:17:59;;;;;;;3.28;2.58;;;;;;;-140.79;100.00;63287.88;4965254;28;20590;-71
2021/06/05 09:20:25;;;;;;;3.22;2.40;;;;;;;-140.79;100.00;63287.88;4963209;28;20096;-72
2021/06/05 09:22:50;;;;;;;3.88;2.40;;;;;;;-140.79;100.00;63287.88;4961915;28;20031;-72
2021/06/05 09:25:39;;;;;;;4.38;2.75;;;;;;;-140.79;100.00;63287.88;4965061;28;20089;-72
2021/06/05 09:28:20;;;;;;;3.03;2.30;;;;;;;-140.79;100.00;63287.88;4966599;28;20039;-69
2021/06/05 09:30:46;;;;;;;3.25;2.45;;;;;;;-140.79;100.00;63287.88;4966933;28;20035;-72
2021/06/05 09:33:13;;;;;;;2.75;2.20;;;;;;;-140.79;100.00;63287.88;4964200;28;20031;-73
2021/06/05 09:35:45;;;;;;;4.65;2.72;;;;;;;-140.79;100.00;63287.88;4965571;28;20037;-73
2021/06/05 09:38:14;;;;;;;3.13;2.20;;;;;;;-140.79;100.00;63287.88;4947400;28;20039;-72
2021/06/05 09:40:40;;;;;;;2.70;2.08;;;;;;;-140.79;100.00;63287.88;4950062;28;20170;-73
2021/06/05 09:43:08;;;;;;;3.00;2.38;;;;;;;-140.79;100.00;63287.88;4955269;28;20118;-72
2021/06/05 09:45:36;;;;;;;3.95;1.92;;;;;;;-140.79;100.00;63287.88;4972713;28;20031;-72
2021/06/05 09:48:30;;;;;;;3.90;2.67;;;;;;;-140.79;100.00;63287.88;4972916;28;20065;-72
2021/06/05 09:50:59;;;;;;;2.45;2.00;;;;;;;-140.79;100.00;63287.88;4975069;28;20030;-72
2021/06/05 09:53:31;;;;;;;2.92;2.08;;;;;;;-140.79;100.00;63287.88;4957274;28;20129;-74
2021/06/05 09:56:23;;;;;;;4.30;2.15;;;;;;;-140.79;100.00;63287.88;4971448;28;20070;-71
2021/06/05 09:59:03;;;;;;;3.97;2.10;;;;;;;-140.79;100.00;63287.88;4960130;28;20460;-69
2021/06/05 10:01:29;;;;;;;2.50;1.75;;;;;;;-140.79;100.00;63287.88;4949231;28;20121;-71
2021/06/05 10:03:56;;;;;;;2.40;1.98;;;;;;;-140.79;100.00;63287.88;4966649;28;20081;-69
2021/06/05 10:06:35;;;;;;;5.40;2.38;;;;;;;-140.79;100.00;63287.88;4967257;28;20516;-71
2021/06/05 10:09:21;;;;;;;3.38;2.35;;;;;;;-140.79;100.00;63287.88;4931613;28;20031;-71
2021/06/05 10:11:48;;;;;;;3.83;2.20;;;;;;;-140.79;100.00;63287.88;4952116;28;20569;-71
2021/06/05 10:14:35;;;;;;;4.45;2.05;;;;;;;-140.79;100.00;63287.88;4949449;28;20026;-71
2021/06/05 10:17:22;;;;;;;4.18;2.22;;;;;;;-140.79;100.00;63287.88;4953936;28;20047;-70
2021/06/05 10:20:01;;;;;;;2.30;2.00;;;;;;;-140.79;100.00;63287.88;4962761;28;20169;-70
2021/06/05 10:22:27;;;;;;;3.00;2.10;;;;;;;-140.79;100.00;63287.88;4953452;28;20035;-71
2021/06/05 10:24:59;;;;;;;4.97;1.92;;;;;;;-140.79;100.00;63287.88;4968966;28;20031;-71
2021/06/05 10:27:32;;;;;;;4.50;1.80;;;;;;;-140.79;100.00;63287.88;4953247;28;20494;-71
2021/06/05 10:29:59;;;;;;;3.85;2.55;;;;;;;-140.79;100.00;63287.88;4936829;28;20030;-73
2021/06/05 10:32:27;;;;;;;2.88;1.92;;;;;;;-140.79;100.00;63287.88;4970071;28;20077;-74
2021/06/05 10:35:06;;;;;;;3.10;1.65;;;;;;;-140.79;100.00;63287.88;4952768;28;20105;-74
2021/06/05 10:37:32;;;;;;;3.42;1.90;;;;;;;-140.79;100.00;63287.88;4954318;28;20037;-72
2021/06/05 10:39:58;;;;;;;2.95;1.63;;;;;;;-140.79;100.00;63287.88;4951852;28;20031;-72
2021/06/05 10:42:46;;;;;;;2.00;1.80;;;;;;;-140.79;100.00;63287.88;4969252;28;20034;-71
2021/06/05 10:45:27;;;;;;;4.35;2.10;;;;;;;-140.79;100.00;63287.88;4952652;28;20067;-72
2021/06/05 10:48:16;;;;;;;2.60;1.90;;;;;;;-140.79;100.00;63287.88;4952471;28;20042;-72
2021/06/05 10:50:47;;;;;;;2.15;1.75;;;;;;;-140.79;100.00;63287.88;4952437;28;20026;-72
2021/06/05 10:53:35;;;;;;;2.38;1.90;;;;;;;-140.79;100.00;63287.88;4966552;28;20038;-70
2021/06/05 10:56:14;;;;;;;2.58;1.92;;;;;;;-140.79;100.00;63287.88;4951625;28;20050;-71
2021/06/05 10:58:42;;;;;;;2.40;1.80;;;;;;;-140.79;100.00;63287.88;4953063;28;20128;-69
2021/06/05 11:01:22;;;;;;;2.78;1.95;;;;;;;-140.79;100.00;63287.88;4968635;28;20050;-70
2021/06/05 11:03:49;;;;;;;2.13;1.65;;;;;;;-140.79;100.00;63287.88;4953227;28;20129;-73
2021/06/05 11:06:17;;;;;;;2.10;1.90;;;;;;;-140.79;100.00;63287.88;4969454;28;20039;-71
2021/06/05 11:08:48;;;;;;;2.13;1.90;;;;;;;-140.79;100.00;63287.88;4969595;28;20069;-71
2021/06/05 11:11:33;;;;;;;2.38;2.15;;;;;;;-140.79;100.00;63287.88;4969745;28;20069;-72
2021/06/05 11:14:19;;;;;;;3.00;1.80;;;;;;;-140.79;100.00;63287.88;4969607;28;20090;-72
2021/06/05 11:16:57;;;;;;;2.75;1.95;;;;;;;-140.79;100.00;63287.88;4952562;28;20058;-72